sensor_id;sensor_type;location;lat;lon;timestamp;pressure;altitude;pressure_sealevel;temperature;humidity
55068;BME280;40965;52.368;9.712;2024-01-06T00:00:30;99556.81;;;4.72;100.00
55068;BME280;40965;52.368;9.712;2024-01-06T00:02:58;99550.78;;;4.65;100.00
55068;BME280;40965;52.368;9.712;2024-01-06T00:05:24;99559.44;;;4.67;100.00
55068;BME280;40965;52.368;9.712;2024-01-06T00:07:51;99563.75;;;4.65;100.00
55068;BME280;40965;52.368;9.712;2024-01-06T00:10:22;99568.06;;;4.68;100.00
55068;BME280;40965;52.368;9.712;2024-01-06T00:12:49;99560.31;;;4.71;100.00
55068;BME280;40965;52.368;9.712;2024-01-06T00:15:15;99564.59;;;4.75;100.00
55068;BME280;40965;52.368;9.712;2024-01-06T00:17:42;99568.94;;;4.77;100.00
55068;BME280;40965;52.368;9.712;2024-01-06T00:20:08;99565.47;;;4.78;100.00
55068;BME280;40965;52.368;9.712;2024-01-06T00:22:35;99566.34;;;4.76;100.00
55068;BME280;40965;52.368;9.712;2024-01-06T00:25:02;99566.34;;;4.68;100.00
55068;BME280;40965;52.368;9.712;2024-01-06T00:27:28;99572.38;;;4.69;100.00
55068;BME280;40965;52.368;9.712;2024-01-06T00:29:54;99574.13;;;4.71;100.00
55068;BME280;40965;52.368;9.712;2024-01-06T00:32:21;99568.91;;;4.73;100.00
55068;BME280;40965;52.368;9.712;2024-01-06T00:34:47;99576.69;;;4.73;100.00
55068;BME280;40965;52.368;9.712;2024-01-06T00:37:15;99574.13;;;4.76;100.00
55068;BME280;40965;52.368;9.712;2024-01-06T00:39:41;99571.53;;;4.76;100.00
55068;BME280;40965;52.368;9.712;2024-01-06T00:42:08;99570.66;;;4.74;100.00
55068;BME280;40965;52.368;9.712;2024-01-06T00:44:38;99568.94;;;4.68;100.00
55068;BME280;40965;52.368;9.712;2024-01-06T00:47:04;99573.25;;;4.61;100.00
55068;BME280;40965;52.368;9.712;2024-01-06T00:49:31;99572.44;;;4.58;100.00
55068;BME280;40965;52.368;9.712;2024-01-06T00:51:57;99576.75;;;4.56;100.00
55068;BME280;40965;52.368;9.712;2024-01-06T00:54:24;99575.88;;;4.63;100.00
55068;BME280;40965;52.368;9.712;2024-01-06T00:56:50;99579.31;;;4.65;100.00
55068;BME280;40965;52.368;9.712;2024-01-06T00:59:17;99581.91;;;4.70;100.00
55068;BME280;40965;52.368;9.712;2024-01-06T01:01:45;99587.94;;;4.75;100.00
55068;BME280;40965;52.368;9.712;2024-01-06T01:04:11;99591.38;;;4.75;100.00
55068;BME280;40965;52.368;9.712;2024-01-06T01:06:38;99589.69;;;4.70;100.00
55068;BME280;40965;52.368;9.712;2024-01-06T01:09:04;99594.84;;;4.65;100.00
55068;BME280;40965;52.368;9.712;2024-01-06T01:11:33;99606.13;;;4.66;100.00
55068;BME280;40965;52.368;9.712;2024-01-06T01:14:03;99602.66;;;4.57;100.00
55068;BME280;40965;52.368;9.712;2024-01-06T01:16:29;99605.25;;;4.57;100.00
55068;BME280;40965;52.368;9.712;2024-01-06T01:18:57;99613.88;;;4.47;100.00
55068;BME280;40965;52.368;9.712;2024-01-06T01:21:24;99620.81;;;4.46;100.00
55068;BME280;40965;52.368;9.712;2024-01-06T01:23:51;99622.53;;;4.54;100.00
55068;BME280;40965;52.368;9.712;2024-01-06T01:26:17;99623.41;;;4.53;100.00
55068;BME280;40965;52.368;9.712;2024-01-06T01:28:43;99626.84;;;4.53;100.00
55068;BME280;40965;52.368;9.712;2024-01-06T01:31:10;99634.63;;;4.53;100.00
55068;BME280;40965;52.368;9.712;2024-01-06T01:33:38;99634.63;;;4.56;100.00
55068;BME280;40965;52.368;9.712;2024-01-06T01:36:04;99627.72;;;4.55;100.00
55068;BME280;40965;52.368;9.712;2024-01-06T01:38:34;99633.78;;;4.59;100.00
55068;BME280;40965;52.368;9.712;2024-01-06T01:41:00;99623.41;;;4.53;100.00
55068;BME280;40965;52.368;9.712;2024-01-06T01:43:27;99627.72;;;4.52;100.00
55068;BME280;40965;52.368;9.712;2024-01-06T01:45:55;99626.84;;;4.53;100.00
55068;BME280;40965;52.368;9.712;2024-01-06T01:48:23;99640.69;;;4.55;100.00
55068;BME280;40965;52.368;9.712;2024-01-06T01:50:52;99632.88;;;4.60;100.00
55068;BME280;40965;52.368;9.712;2024-01-06T01:53:19;99630.31;;;4.55;100.00
55068;BME280;40965;52.368;9.712;2024-01-06T01:55:47;99631.19;;;4.53;100.00
55068;BME280;40965;52.368;9.712;2024-01-06T01:58:15;99638.09;;;4.55;100.00
55068;BME280;40965;52.368;9.712;2024-01-06T02:00:42;99641.56;;;4.51;100.00
55068;BME280;40965;52.368;9.712;2024-01-06T02:03:09;99639.81;;;4.35;100.00
55068;BME280;40965;52.368;9.712;2024-01-06T02:05:38;99637.22;;;4.36;100.00
55068;BME280;40965;52.368;9.712;2024-01-06T02:08:07;99639.81;;;4.35;100.00
55068;BME280;40965;52.368;9.712;2024-01-06T02:10:34;99640.66;;;4.35;100.00
55068;BME280;40965;52.368;9.712;2024-01-06T02:13:08;99640.69;;;4.38;100.00
55068;BME280;40965;52.368;9.712;2024-01-06T02:15:36;99651.91;;;4.40;100.00
55068;BME280;40965;52.368;9.712;2024-01-06T02:18:03;99648.44;;;4.34;100.00
55068;BME280;40965;52.368;9.712;2024-01-06T02:20:31;99652.78;;;4.32;100.00
55068;BME280;40965;52.368;9.712;2024-01-06T02:23:00;99649.31;;;4.33;100.00
55068;BME280;40965;52.368;9.712;2024-01-06T02:25:27;99660.56;;;4.41;100.00
55068;BME280;40965;52.368;9.712;2024-01-06T02:27:55;99658.81;;;4.44;100.00
55068;BME280;40965;52.368;9.712;2024-01-06T02:30:21;99663.13;;;4.47;100.00
55068;BME280;40965;52.368;9.712;2024-01-06T02:32:48;99655.34;;;4.45;100.00
55068;BME280;40965;52.368;9.712;2024-01-06T02:35:17;99664.00;;;4.44;100.00
55068;BME280;40965;52.368;9.712;2024-01-06T02:37:43;99666.59;;;4.49;100.00
55068;BME280;40965;52.368;9.712;2024-01-06T02:40:10;99661.44;;;4.46;100.00
55068;BME280;40965;52.368;9.712;2024-01-06T02:42:38;99673.53;;;4.49;100.00
55068;BME280;40965;52.368;9.712;2024-01-06T02:45:06;99664.84;;;4.50;100.00
55068;BME280;40965;52.368;9.712;2024-01-06T02:47:33;99676.09;;;4.52;100.00
55068;BME280;40965;52.368;9.712;2024-01-06T02:50:03;99677.84;;;4.51;100.00
55068;BME280;40965;52.368;9.712;2024-01-06T02:52:30;99686.47;;;4.49;100.00
55068;BME280;40965;52.368;9.712;2024-01-06T02:54:57;99681.28;;;4.55;100.00
55068;BME280;40965;52.368;9.712;2024-01-06T02:57:24;99677.84;;;4.53;100.00
55068;BME280;40965;52.368;9.712;2024-01-06T02:59:53;99682.16;;;4.49;100.00
55068;BME280;40965;52.368;9.712;2024-01-06T03:02:19;99684.75;;;4.46;100.00
55068;BME280;40965;52.368;9.712;2024-01-06T03:04:45;99673.50;;;4.50;100.00
55068;BME280;40965;52.368;9.712;2024-01-06T03:07:12;99680.44;;;4.51;100.00
55068;BME280;40965;52.368;9.712;2024-01-06T03:09:38;99680.41;;;4.53;100.00
55068;BME280;40965;52.368;9.712;2024-01-06T03:12:08;99681.28;;;4.52;100.00
55068;BME280;40965;52.368;9.712;2024-01-06T03:14:35;99693.38;;;4.45;100.00
55068;BME280;40965;52.368;9.712;2024-01-06T03:17:02;99697.66;;;4.37;100.00
55068;BME280;40965;52.368;9.712;2024-01-06T03:19:29;99697.69;;;4.29;100.00
55068;BME280;40965;52.368;9.712;2024-01-06T03:21:56;99696.81;;;4.30;100.00
55068;BME280;40965;52.368;9.712;2024-01-06T03:24:24;99701.13;;;4.23;100.00
55068;BME280;40965;52.368;9.712;2024-01-06T03:26:51;99706.31;;;4.29;100.00
55068;BME280;40965;52.368;9.712;2024-01-06T03:29:17;99710.63;;;4.26;100.00
55068;BME280;40965;52.368;9.712;2024-01-06T03:31:45;99708.91;;;4.31;100.00
55068;BME280;40965;52.368;9.712;2024-01-06T03:34:12;99707.19;;;4.38;100.00
55068;BME280;40965;52.368;9.712;2024-01-06T03:36:39;99711.50;;;4.28;100.00
55068;BME280;40965;52.368;9.712;2024-01-06T03:39:06;99714.09;;;4.29;100.00
55068;BME280;40965;52.368;9.712;2024-01-06T03:41:34;99713.22;;;4.27;100.00
55068;BME280;40965;52.368;9.712;2024-01-06T03:44:04;99719.28;;;4.28;100.00
55068;BME280;40965;52.368;9.712;2024-01-06T03:46:33;99714.06;;;4.23;100.00
55068;BME280;40965;52.368;9.712;2024-01-06T03:49:01;99718.41;;;4.24;100.00
55068;BME280;40965;52.368;9.712;2024-01-06T03:51:30;99727.91;;;4.27;100.00
55068;BME280;40965;52.368;9.712;2024-01-06T03:53:56;99726.16;;;4.24;100.00
55068;BME280;40965;52.368;9.712;2024-01-06T03:56:23;99725.28;;;4.19;100.00
55068;BME280;40965;52.368;9.712;2024-01-06T03:58:49;99727.84;;;4.14;100.00
55068;BME280;40965;52.368;9.712;2024-01-06T04:01:19;99734.81;;;4.19;100.00
55068;BME280;40965;52.368;9.712;2024-01-06T04:03:46;99740.84;;;4.18;100.00
55068;BME280;40965;52.368;9.712;2024-01-06T04:06:13;99736.47;;;4.01;100.00
55068;BME280;40965;52.368;9.712;2024-01-06T04:08:39;99740.75;;;3.93;100.00
55068;BME280;40965;52.368;9.712;2024-01-06T04:11:06;99745.91;;;3.88;100.00
55068;BME280;40965;52.368;9.712;2024-01-06T04:13:33;99747.63;;;3.80;100.00
55068;BME280;40965;52.368;9.712;2024-01-06T04:15:59;99754.53;;;3.86;100.00
55068;BME280;40965;52.368;9.712;2024-01-06T04:18:26;99756.28;;;3.88;100.00
55068;BME280;40965;52.368;9.712;2024-01-06T04:20:52;99755.44;;;3.95;100.00
55068;BME280;40965;52.368;9.712;2024-01-06T04:23:19;99761.50;;;3.99;100.00
55068;BME280;40965;52.368;9.712;2024-01-06T04:25:45;99763.22;;;3.98;100.00
55068;BME280;40965;52.368;9.712;2024-01-06T04:28:13;99757.19;;;3.96;100.00
55068;BME280;40965;52.368;9.712;2024-01-06T04:30:42;99769.25;;;3.94;100.00
55068;BME280;40965;52.368;9.712;2024-01-06T04:33:08;99777.88;;;3.92;100.00
55068;BME280;40965;52.368;9.712;2024-01-06T04:35:35;99778.72;;;3.91;100.00
55068;BME280;40965;52.368;9.712;2024-01-06T04:38:01;99776.16;;;3.94;100.00
55068;BME280;40965;52.368;9.712;2024-01-06T04:40:28;99779.59;;;3.91;100.00
55068;BME280;40965;52.368;9.712;2024-01-06T04:42:55;99784.78;;;3.93;100.00
55068;BME280;40965;52.368;9.712;2024-01-06T04:45:21;99788.22;;;3.89;100.00
55068;BME280;40965;52.368;9.712;2024-01-06T04:47:49;99784.75;;;3.87;100.00
55068;BME280;40965;52.368;9.712;2024-01-06T04:50:16;99795.09;;;3.88;100.00
55068;BME280;40965;52.368;9.712;2024-01-06T04:52:43;99787.34;;;3.87;100.00
55068;BME280;40965;52.368;9.712;2024-01-06T04:55:10;99794.25;;;3.88;100.00
55068;BME280;40965;52.368;9.712;2024-01-06T04:57:39;99792.47;;;3.77;100.00
55068;BME280;40965;52.368;9.712;2024-01-06T05:00:07;99789.03;;;3.78;100.00
55068;BME280;40965;52.368;9.712;2024-01-06T05:02:34;99795.91;;;3.78;100.00
55068;BME280;40965;52.368;9.712;2024-01-06T05:05:00;99798.50;;;3.75;100.00
55068;BME280;40965;52.368;9.712;2024-01-06T05:07:27;99808.06;;;3.82;100.00
55068;BME280;40965;52.368;9.712;2024-01-06T05:09:55;99808.06;;;3.87;100.00
55068;BME280;40965;52.368;9.712;2024-01-06T05:12:22;99805.47;;;3.88;100.00
55068;BME280;40965;52.368;9.712;2024-01-06T05:14:48;99802.84;;;3.79;100.00
55068;BME280;40965;52.368;9.712;2024-01-06T05:17:15;99819.25;;;3.84;100.00
55068;BME280;40965;52.368;9.712;2024-01-06T05:19:41;99815.81;;;3.82;100.00
55068;BME280;40965;52.368;9.712;2024-01-06T05:22:08;99819.25;;;3.84;100.00
55068;BME280;40965;52.368;9.712;2024-01-06T05:24:34;99819.22;;;3.76;100.00
55068;BME280;40965;52.368;9.712;2024-01-06T05:27:06;99829.59;;;3.81;100.00
55068;BME280;40965;52.368;9.712;2024-01-06T05:29:33;99831.34;;;3.82;100.00
55068;BME280;40965;52.368;9.712;2024-01-06T05:31:59;99833.06;;;3.83;100.00
55068;BME280;40965;52.368;9.712;2024-01-06T05:34:26;99833.94;;;3.87;100.00
55068;BME280;40965;52.368;9.712;2024-01-06T05:36:52;99842.59;;;3.87;100.00
55068;BME280;40965;52.368;9.712;2024-01-06T05:39:19;99838.28;;;3.89;100.00
55068;BME280;40965;52.368;9.712;2024-01-06T05:41:45;99835.69;;;3.85;100.00
55068;BME280;40965;52.368;9.712;2024-01-06T05:44:12;99840.81;;;3.80;100.00
55068;BME280;40965;52.368;9.712;2024-01-06T05:46:39;99837.34;;;3.78;100.00
55068;BME280;40965;52.368;9.712;2024-01-06T05:49:09;99838.22;;;3.80;100.00
55068;BME280;40965;52.368;9.712;2024-01-06T05:51:36;99844.25;;;3.80;100.00
55068;BME280;40965;52.368;9.712;2024-01-06T05:54:02;99843.41;;;3.78;100.00
55068;BME280;40965;52.368;9.712;2024-01-06T05:56:29;99845.09;;;3.76;100.00
55068;BME280;40965;52.368;9.712;2024-01-06T05:58:56;99850.31;;;3.79;100.00
55068;BME280;40965;52.368;9.712;2024-01-06T06:01:22;99855.47;;;3.78;100.00
55068;BME280;40965;52.368;9.712;2024-01-06T06:03:50;99864.13;;;3.78;100.00
55068;BME280;40965;52.368;9.712;2024-01-06T06:06:16;99865.81;;;3.73;100.00
55068;BME280;40965;52.368;9.712;2024-01-06T06:08:43;99863.16;;;3.66;100.00
55068;BME280;40965;52.368;9.712;2024-01-06T06:11:10;99871.84;;;3.72;100.00
55068;BME280;40965;52.368;9.712;2024-01-06T06:13:38;99876.97;;;3.64;100.00
55068;BME280;40965;52.368;9.712;2024-01-06T06:16:07;99883.03;;;3.71;100.00
55068;BME280;40965;52.368;9.712;2024-01-06T06:18:35;99887.34;;;3.69;100.00
55068;BME280;40965;52.368;9.712;2024-01-06T06:21:01;99891.63;;;3.64;100.00
55068;BME280;40965;52.368;9.712;2024-01-06T06:23:30;99894.19;;;3.61;100.00
55068;BME280;40965;52.368;9.712;2024-01-06T06:25:57;99901.97;;;3.64;100.00
55068;BME280;40965;52.368;9.712;2024-01-06T06:28:24;99895.97;;;3.68;100.00
55068;BME280;40965;52.368;9.712;2024-01-06T06:31:00;99908.91;;;3.68;100.00
55068;BME280;40965;52.368;9.712;2024-01-06T06:33:27;99920.94;;;3.63;100.00
55068;BME280;40965;52.368;9.712;2024-01-06T06:35:54;99922.63;;;3.58;100.00
55068;BME280;40965;52.368;9.712;2024-01-06T06:38:21;99928.59;;;3.46;100.00
55068;BME280;40965;52.368;9.712;2024-01-06T06:40:47;99928.56;;;3.44;100.00
55068;BME280;40965;52.368;9.712;2024-01-06T06:43:14;99930.34;;;3.48;100.00
55068;BME280;40965;52.368;9.712;2024-01-06T06:45:40;99938.94;;;3.46;100.00
55068;BME280;40965;52.368;9.712;2024-01-06T06:48:07;99938.03;;;3.42;100.00
55068;BME280;40965;52.368;9.712;2024-01-06T06:50:33;99936.34;;;3.44;100.00
55068;BME280;40965;52.368;9.712;2024-01-06T06:53:00;99942.44;;;3.54;100.00
55068;BME280;40965;52.368;9.712;2024-01-06T06:55:27;99947.66;;;3.59;100.00
55068;BME280;40965;52.368;9.712;2024-01-06T06:57:54;99951.94;;;3.55;100.00
55068;BME280;40965;52.368;9.712;2024-01-06T07:00:20;99946.78;;;3.57;100.00
55068;BME280;40965;52.368;9.712;2024-01-06T07:02:47;99947.69;;;3.60;100.00
55068;BME280;40965;52.368;9.712;2024-01-06T07:05:13;99964.91;;;3.57;100.00
55068;BME280;40965;52.368;9.712;2024-01-06T07:07:40;99963.13;;;3.51;100.00
55068;BME280;40965;52.368;9.712;2024-01-06T07:10:08;99962.28;;;3.55;100.00
55068;BME280;40965;52.368;9.712;2024-01-06T07:12:37;99965.66;;;3.45;100.00
55068;BME280;40965;52.368;9.712;2024-01-06T07:15:04;99965.66;;;3.46;100.00
55068;BME280;40965;52.368;9.712;2024-01-06T07:17:31;99961.44;;;3.55;100.00
55068;BME280;40965;52.368;9.712;2024-01-06T07:19:58;99969.22;;;3.55;100.00
55068;BME280;40965;52.368;9.712;2024-01-06T07:22:24;99972.56;;;3.47;100.00
55068;BME280;40965;52.368;9.712;2024-01-06T07:24:51;99982.97;;;3.52;100.00
55068;BME280;40965;52.368;9.712;2024-01-06T07:27:18;99984.66;;;3.47;100.00
55068;BME280;40965;52.368;9.712;2024-01-06T07:29:48;99992.44;;;3.47;100.00
55068;BME280;40965;52.368;9.712;2024-01-06T07:32:16;99988.16;;;3.52;100.00
55068;BME280;40965;52.368;9.712;2024-01-06T07:34:43;99989.91;;;3.55;100.00
55068;BME280;40965;52.368;9.712;2024-01-06T07:37:09;99994.25;;;3.57;100.00
55068;BME280;40965;52.368;9.712;2024-01-06T07:39:36;99997.63;;;3.53;100.00
55068;BME280;40965;52.368;9.712;2024-01-06T07:42:03;100002.81;;;3.52;100.00
55068;BME280;40965;52.368;9.712;2024-01-06T07:44:30;100013.97;;;3.44;100.00
55068;BME280;40965;52.368;9.712;2024-01-06T07:46:56;100020.72;;;3.30;100.00
55068;BME280;40965;52.368;9.712;2024-01-06T07:49:23;100023.25;;;3.27;100.00
55068;BME280;40965;52.368;9.712;2024-01-06T07:51:49;100022.50;;;3.39;100.00
55068;BME280;40965;52.368;9.712;2024-01-06T07:54:18;100038.13;;;3.46;100.00
55068;BME280;40965;52.368;9.712;2024-01-06T07:56:45;100038.09;;;3.45;100.00
55068;BME280;40965;52.368;9.712;2024-01-06T07:59:14;100039.94;;;3.54;100.00
55068;BME280;40965;52.368;9.712;2024-01-06T08:01:41;100044.25;;;3.56;100.00
55068;BME280;40965;52.368;9.712;2024-01-06T08:04:08;100045.13;;;3.57;100.00
55068;BME280;40965;52.368;9.712;2024-01-06T08:06:35;100049.28;;;3.42;100.00
55068;BME280;40965;52.368;9.712;2024-01-06T08:09:02;100056.97;;;3.33;100.00
55068;BME280;40965;52.368;9.712;2024-01-06T08:11:29;100059.44;;;3.22;100.00
55068;BME280;40965;52.368;9.712;2024-01-06T08:13:55;100061.22;;;3.29;100.00
55068;BME280;40965;52.368;9.712;2024-01-06T08:16:22;100069.13;;;3.42;100.00
55068;BME280;40965;52.368;9.712;2024-01-06T08:18:48;100070.81;;;3.38;100.00
55068;BME280;40965;52.368;9.712;2024-01-06T08:21:15;100069.91;;;3.33;100.00
55068;BME280;40965;52.368;9.712;2024-01-06T08:23:41;100076.59;;;3.16;100.00
55068;BME280;40965;52.368;9.712;2024-01-06T08:26:08;100080.97;;;3.20;100.00
55068;BME280;40965;52.368;9.712;2024-01-06T08:28:35;100086.22;;;3.29;100.00
55068;BME280;40965;52.368;9.712;2024-01-06T08:31:01;100084.41;;;3.22;100.00
55068;BME280;40965;52.368;9.712;2024-01-06T08:33:27;100095.56;;;3.18;100.00
55068;BME280;40965;52.368;9.712;2024-01-06T08:35:54;100097.44;;;3.28;100.00
55068;BME280;40965;52.368;9.712;2024-01-06T08:38:21;100100.81;;;3.21;100.00
55068;BME280;40965;52.368;9.712;2024-01-06T08:40:50;100107.59;;;3.12;100.00
55068;BME280;40965;52.368;9.712;2024-01-06T08:43:18;100115.44;;;3.22;100.00
55068;BME280;40965;52.368;9.712;2024-01-06T08:45:45;100123.06;;;3.09;100.00
55068;BME280;40965;52.368;9.712;2024-01-06T08:48:11;100115.31;;;3.09;100.00
55068;BME280;40965;52.368;9.712;2024-01-06T08:50:39;100124.94;;;3.20;100.00
55068;BME280;40965;52.368;9.712;2024-01-06T08:53:05;100116.22;;;3.13;100.00
55068;BME280;40965;52.368;9.712;2024-01-06T08:55:32;100132.56;;;3.10;100.00
55068;BME280;40965;52.368;9.712;2024-01-06T08:57:58;100130.88;;;3.14;100.00
55068;BME280;40965;52.368;9.712;2024-01-06T09:00:25;100137.69;;;3.07;100.00
55068;BME280;40965;52.368;9.712;2024-01-06T09:02:52;100145.50;;;3.10;100.00
55068;BME280;40965;52.368;9.712;2024-01-06T09:05:19;100150.81;;;3.21;100.00
55068;BME280;40965;52.368;9.712;2024-01-06T09:07:45;100155.06;;;3.16;100.00
55068;BME280;40965;52.368;9.712;2024-01-06T09:10:16;100160.34;;;3.25;100.00
55068;BME280;40965;52.368;9.712;2024-01-06T09:12:44;100167.19;;;3.22;100.00
55068;BME280;40965;52.368;9.712;2024-01-06T09:15:10;100169.06;;;3.34;100.00
55068;BME280;40965;52.368;9.712;2024-01-06T09:17:37;100165.63;;;3.36;100.00
55068;BME280;40965;52.368;9.712;2024-01-06T09:20:04;100177.72;;;3.37;100.00
55068;BME280;40965;52.368;9.712;2024-01-06T09:22:31;100182.97;;;3.42;100.00
55068;BME280;40965;52.368;9.712;2024-01-06T09:24:57;100176.88;;;3.38;100.00
55068;BME280;40965;52.368;9.712;2024-01-06T09:27:24;100181.88;;;3.26;100.00
55068;BME280;40965;52.368;9.712;2024-01-06T09:29:51;100188.06;;;3.34;100.00
55068;BME280;40965;52.368;9.712;2024-01-06T09:32:17;100194.78;;;3.20;100.00
55068;BME280;40965;52.368;9.712;2024-01-06T09:34:44;100191.25;;;3.14;100.00
55068;BME280;40965;52.368;9.712;2024-01-06T09:37:10;100204.91;;;3.07;100.00
55068;BME280;40965;52.368;9.712;2024-01-06T09:39:37;100199.81;;;3.10;100.00
55068;BME280;40965;52.368;9.712;2024-01-06T09:42:04;100199.00;;;3.13;100.00
55068;BME280;40965;52.368;9.712;2024-01-06T09:44:32;100205.06;;;3.17;100.00
55068;BME280;40965;52.368;9.712;2024-01-06T09:47:01;100215.97;;;2.95;100.00
55068;BME280;40965;52.368;9.712;2024-01-06T09:49:30;100211.75;;;3.02;100.00
55068;BME280;40965;52.368;9.712;2024-01-06T09:51:59;100215.38;;;3.13;100.00
55068;BME280;40965;52.368;9.712;2024-01-06T09:54:30;100210.34;;;3.24;100.00
55068;BME280;40965;52.368;9.712;2024-01-06T09:57:01;100217.13;;;3.16;100.00
55068;BME280;40965;52.368;9.712;2024-01-06T09:59:30;100213.75;;;3.23;100.00
55068;BME280;40965;52.368;9.712;2024-01-06T10:02:03;100212.16;;;3.30;100.00
55068;BME280;40965;52.368;9.712;2024-01-06T10:04:30;100219.84;;;3.25;100.00
55068;BME280;40965;52.368;9.712;2024-01-06T10:06:57;100223.34;;;3.29;100.00
55068;BME280;40965;52.368;9.712;2024-01-06T10:09:27;100221.34;;;3.11;100.00
55068;BME280;40965;52.368;9.712;2024-01-06T10:11:56;100231.69;;;3.09;100.00
55068;BME280;40965;52.368;9.712;2024-01-06T10:14:24;100228.22;;;3.09;100.00
55068;BME280;40965;52.368;9.712;2024-01-06T10:16:54;100230.72;;;3.03;100.00
55068;BME280;40965;52.368;9.712;2024-01-06T10:19:20;100240.88;;;2.92;100.00
55068;BME280;40965;52.368;9.712;2024-01-06T10:21:47;100245.28;;;2.96;100.00
55068;BME280;40965;52.368;9.712;2024-01-06T10:24:14;100249.59;;;2.97;100.00
55068;BME280;40965;52.368;9.712;2024-01-06T10:26:41;100246.38;;;3.10;100.00
55068;BME280;40965;52.368;9.712;2024-01-06T10:29:07;100251.31;;;2.96;100.00
55068;BME280;40965;52.368;9.712;2024-01-06T10:31:34;100247.03;;;2.98;100.00
55068;BME280;40965;52.368;9.712;2024-01-06T10:34:02;100250.53;;;3.04;100.00
55068;BME280;40965;52.368;9.712;2024-01-06T10:36:29;100247.22;;;3.11;100.00
55068;BME280;40965;52.368;9.712;2024-01-06T10:38:57;100255.13;;;3.20;100.00
55068;BME280;40965;52.368;9.712;2024-01-06T10:41:24;100251.56;;;3.13;100.00
55068;BME280;40965;52.368;9.712;2024-01-06T10:43:51;100252.41;;;3.12;100.00
55068;BME280;40965;52.368;9.712;2024-01-06T10:46:22;100251.53;;;3.10;100.00
55068;BME280;40965;52.368;9.712;2024-01-06T10:48:51;100259.25;;;3.09;100.00
55068;BME280;40965;52.368;9.712;2024-01-06T10:51:23;100265.28;;;3.08;100.00
55068;BME280;40965;52.368;9.712;2024-01-06T10:53:50;100274.63;;;3.00;100.00
55068;BME280;40965;52.368;9.712;2024-01-06T10:56:17;100273.56;;;2.87;100.00
55068;BME280;40965;52.368;9.712;2024-01-06T10:58:47;100282.31;;;2.93;100.00
55068;BME280;40965;52.368;9.712;2024-01-06T11:01:20;100277.84;;;2.85;100.00
55068;BME280;40965;52.368;9.712;2024-01-06T11:03:50;100288.22;;;2.88;100.00
55068;BME280;40965;52.368;9.712;2024-01-06T11:06:18;100289.94;;;2.86;100.00
55068;BME280;40965;52.368;9.712;2024-01-06T11:09:06;100289.25;;;2.96;100.00
55068;BME280;40965;52.368;9.712;2024-01-06T11:11:38;100288.47;;;3.03;100.00
55068;BME280;40965;52.368;9.712;2024-01-06T11:14:24;100289.50;;;3.13;100.00
55068;BME280;40965;52.368;9.712;2024-01-06T11:16:53;100293.78;;;3.11;100.00
55068;BME280;40965;52.368;9.712;2024-01-06T11:24:51;100290.00;;;2.90;100.00
55068;BME280;40965;52.368;9.712;2024-01-06T11:27:26;100291.84;;;2.96;100.00
55068;BME280;40965;52.368;9.712;2024-01-06T11:29:55;100285.84;;;3.00;100.00
55068;BME280;40965;52.368;9.712;2024-01-06T11:32:34;100289.28;;;2.99;100.00
55068;BME280;40965;52.368;9.712;2024-01-06T11:35:16;100278.00;;;2.95;100.00
55068;BME280;40965;52.368;9.712;2024-01-06T11:43:10;100282.09;;;2.81;100.00
55068;BME280;40965;52.368;9.712;2024-01-06T11:45:40;100283.69;;;2.73;100.00
55068;BME280;40965;52.368;9.712;2024-01-06T11:48:11;100286.94;;;2.61;100.00
55068;BME280;40965;52.368;9.712;2024-01-06T11:50:40;100291.97;;;2.53;100.00
55068;BME280;40965;52.368;9.712;2024-01-06T11:53:10;100279.78;;;2.47;100.00
55068;BME280;40965;52.368;9.712;2024-01-06T11:55:39;100291.16;;;2.56;100.00
55068;BME280;40965;52.368;9.712;2024-01-06T11:58:07;100285.84;;;2.48;100.00
55068;BME280;40965;52.368;9.712;2024-01-06T12:00:35;100283.41;;;2.56;100.00
55068;BME280;40965;52.368;9.712;2024-01-06T12:03:04;100282.53;;;2.57;100.00
55068;BME280;40965;52.368;9.712;2024-01-06T12:05:33;100285.84;;;2.50;100.00
55068;BME280;40965;52.368;9.712;2024-01-06T12:08:02;100277.34;;;2.55;100.00
55068;BME280;40965;52.368;9.712;2024-01-06T12:10:31;100288.59;;;2.59;100.00
55068;BME280;40965;52.368;9.712;2024-01-06T12:13:06;100299.69;;;2.52;100.00
55068;BME280;40965;52.368;9.712;2024-01-06T12:15:35;100297.84;;;2.46;100.00
55068;BME280;40965;52.368;9.712;2024-01-06T12:18:03;100303.59;;;2.29;100.00
55068;BME280;40965;52.368;9.712;2024-01-06T12:20:31;100301.19;;;2.39;100.00
55068;BME280;40965;52.368;9.712;2024-01-06T12:23:00;100306.72;;;2.14;100.00
55068;BME280;40965;52.368;9.712;2024-01-06T12:25:30;100306.53;;;2.04;100.00
55068;BME280;40965;52.368;9.712;2024-01-06T12:28:05;100313.44;;;2.05;100.00
55068;BME280;40965;52.368;9.712;2024-01-06T12:30:33;100315.19;;;2.07;100.00
55068;BME280;40965;52.368;9.712;2024-01-06T12:33:02;100316.91;;;2.07;100.00
55068;BME280;40965;52.368;9.712;2024-01-06T12:35:30;100317.81;;;2.09;100.00
55068;BME280;40965;52.368;9.712;2024-01-06T12:37:56;100319.75;;;2.19;100.00
55068;BME280;40965;52.368;9.712;2024-01-06T12:40:26;100327.69;;;2.30;100.00
55068;BME280;40965;52.368;9.712;2024-01-06T12:43:06;100330.16;;;2.25;100.00
55068;BME280;40965;52.368;9.712;2024-01-06T12:45:36;100328.19;;;2.12;100.00
55068;BME280;40965;52.368;9.712;2024-01-06T12:48:05;100336.16;;;2.23;100.00
55068;BME280;40965;52.368;9.712;2024-01-06T12:50:32;100332.72;;;2.22;100.00
55068;BME280;40965;52.368;9.712;2024-01-06T12:52:58;100329.00;;;2.09;100.00
55068;BME280;40965;52.368;9.712;2024-01-06T12:55:30;100328.88;;;2.03;100.00
55068;BME280;40965;52.368;9.712;2024-01-06T12:57:59;100331.69;;;2.14;100.00
55068;BME280;40965;52.368;9.712;2024-01-06T13:00:29;100335.09;;;2.11;100.00
55068;BME280;40965;52.368;9.712;2024-01-06T13:02:56;100332.56;;;2.14;100.00
55068;BME280;40965;52.368;9.712;2024-01-06T13:05:22;100332.44;;;2.10;100.00
55068;BME280;40965;52.368;9.712;2024-01-06T13:07:52;100338.41;;;2.07;100.00